Terminal Aerodrome Forecast
Issued by NWS

Current Version | Previous Version | Graphics & Text | Print | Product List | Glossary On
Versions: 1 2 3 4 5 6 7 8 9 10 11 12 13 14 15 16 17 18 19 20 21
000
FTUS41 KILN 300800 AAA
TAFLUK
TAF AMD
KLUK 300859Z 3009/0106 00000KT 2SM BR FEW070
      TEMPO 3009/3012 1/2SM FG VV001
     FM301300 26005KT P6SM SCT040
     FM301600 31010KT P6SM BKN040
     FM010100 02004KT P6SM SCT040=

USA.gov is the U.S. government's official web portal to all federal, state and local government web resources and services.